ADDS TAF Board (Experimental) INFO Settings
IDs: Format: Expanded Condensed

KSEA - Seattle-Tacoma Intl, WA, US

Issued at 0307 UTC 28 Jul 2015
Updated at: 0326 UTC 28 Jul 2015
Time0253Z 28/04Z 28/05Z 28/06Z 28/07Z 28/08Z 28/09Z 28/10Z 28/11Z 28/12Z 28/13Z 28/14Z 28/15Z 28/16Z
Type OBS PRVL PRVL PRVL PRVL PRVL PRVL PRVL PRVL PRVL PRVL PRVL PRVL PRVL
VIS 10 >6 >6 >6 >6 >6 >6 >6 >6 >6 >6 >6 >6 >6
CIG 60 60 60 60 -- -- -- -- -- -- -- -- -- --
Cover BKN BKN BKN BKN FEW FEW FEW FEW FEW FEW FEW FEW FEW FEW
FltCat VFR VFR VFR VFR VFR VFR VFR VFR VFR VFR VFR VFR VFR VFR
WX -- -- -- -- -- -- -- -- -- -- -- -- -- --
WDir 310 320 320 320 20 20 20 20 20 20 20 20 20 20
WSpd 4 6 6 6 5 5 5 5 5 5 5 5 5 5
WGst -- -- -- -- -- -- -- -- -- -- -- -- -- --
R16/34
XWnd -3 -4 -4 -4 2 2 2 2 2 2 2 2 2 2
HWnd -3 -5 -5 -5 -5 -5 -5 -5 -5 -5 -5 -5 -5 -5

NOTE: TEMPO conditions in [brackets]. Keep in mind TEMPO conditions might be better (lower impact) than prevailing conditions.

Raw TAF
KSEA 280307Z 2803/2906 32006KT P6SM BKN060
  FM280700 02005KT P6SM FEW070
  FM281800 32007KT P6SM SCT250


Raw METAR
KSEA 280253Z 31004KT 10SM BKN060 21/09 A3022 RMK AO2 SLP238 T02110094 53001
KSEA 280153Z 30005KT 10SM FEW035 BKN070 22/09 A3022 RMK AO2 SLP236 T02170089
KSEA 280053Z VRB05KT 10SM FEW035 BKN075 23/09 A3021 RMK AO2 SLP236 T02330089

METAR Board
Radar Display
Forecast Discussion

TAF Board Legend

Potential Impact
Threat None Slight Moderate High
Visibility (sm) ≥5.1 5.1>X≥3 3>X≥1 <1
Ceiling (100 ft) ≥30.1 30.1>X≥10 10>X≥5 <5
Wind Speed (kt) <10 10≤X<20 20≤X<30 ≥30
Wind Gust (kt) <15 15≤X<25 25≤X<35 ≥35
Weather No Wx Reported VCTS,-TS,-FZRA,SN TS,FZRA +TS,+FZRA,+SN